Date,TemperatureHighF,TemperatureAvgF,TemperatureLowF,DewpointHighF,DewpointAvgF,DewpointLowF,HumidityHigh,HumidityAvg,HumidityLow,PressureMaxIn,PressureMinIn,WindSpeedMaxMPH,WindSpeedAvgMPH,GustSpeedMaxMPH,PrecipitationSumIn
2013-1-1,40.7,36.6,30.2,39.6,35.7,29.2,97,96,96,30.09,29.94,9,2,0,0.11
2013-1-2,32.2,28.1,24.3,29.2,26.2,23.3,96,93,84,30.20,30.08,8,2,0,0.00
2013-1-3,42.4,28.9,20.7,29.9,24.7,19.7,97,85,54,30.36,30.16,8,1,0,0.00
2013-1-4,45.0,30.8,20.2,33.0,25.6,19.1,97,83,54,30.41,30.32,5,1,0,0.01
2013-1-5,47.3,34.9,21.8,35.2,28.7,20.6,97,80,59,30.34,30.15,3,0,0,0.00
2013-1-6,46.8,38.0,26.8,39.8,33.3,24.1,94,83,70,30.32,30.08,10,3,0,0.00
2013-1-7,46.7,32.6,20.8,34.5,27.6,19.6,96,83,61,30.38,30.17,2,0,0,0.01
2013-1-8,59.0,44.7,32.0,43.3,36.4,29.1,92,74,53,30.25,30.13,6,1,0,0.00
2013-1-9,52.7,50.2,48.2,51.8,48.1,42.0,100,93,78,30.34,30.15,3,0,0,0.24
2013-1-10,64.7,57.5,49.2,61.8,56.2,48.4,97,95,90,30.33,29.88,9,2,0,0.67
2013-1-11,70.3,62.8,56.7,62.6,59.1,55.6,97,88,70,29.95,29.81,9,4,0,0.21
2013-1-12,68.1,65.9,61.8,66.3,64.4,60.6,97,95,88,29.91,29.70,9,3,0,0.12
2013-1-13,68.1,52.4,31.6,64.6,50.7,30.6,97,94,87,30.15,29.69,14,5,0,0.03
2013-1-14,31.7,28.0,25.0,30.7,26.4,23.3,97,94,90,30.35,30.15,11,4,0,0.14
2013-1-15,32.4,29.5,25.6,31.6,28.6,24.6,97,96,96,30.21,29.95,7,2,0,0.00
2013-1-16,32.7,31.9,31.0,31.8,31.1,30.2,97,97,97,30.08,29.94,0,0,0,0.00
2013-1-17,45.2,36.1,31.2,39.4,33.5,29.4,97,90,78,30.37,30.02,12,3,0,0.58
2013-1-18,50.1,36.3,24.5,36.5,29.9,23.3,96,79,54,30.49,30.28,3,1,0,0.38
2013-1-19,58.6,46.1,35.7,38.6,33.2,28.2,79,62,40,30.28,30.03,8,3,0,0.04
2013-1-20,49.7,42.3,30.5,37.3,30.9,21.3,87,65,45,30.18,30.05,10,1,0,0.00
2013-1-21,35.8,28.5,21.7,23.3,19.2,12.6,92,69,50,30.24,30.11,12,3,0,0.00
2013-1-22,26.8,22.7,16.4,14.1,9.1,5.6,76,56,44,30.39,30.24,6,1,0,0.00
2013-1-23,50.9,33.6,17.1,35.6,22.8,8.6,88,66,48,30.32,30.06,5,1,0,0.00
2013-1-24,38.3,29.9,24.0,33.3,18.5,11.0,89,63,45,30.44,30.11,10,3,0,0.00
2013-1-25,33.9,30.9,28.3,32.9,26.8,11.7,96,86,48,30.25,30.00,4,0,0,0.23
2013-1-26,44.6,33.5,27.3,36.6,30.7,26.3,97,90,70,30.28,30.16,2,0,0,0.01
2013-1-27,48.4,38.5,27.2,45.3,36.1,26.1,96,91,83,30.28,30.11,5,1,0,0.02
2013-1-28,62.7,55.1,48.2,56.2,50.0,42.6,92,83,76,30.11,30.00,8,4,0,0.02
2013-1-29,68.5,61.9,55.2,64.8,59.5,53.5,96,92,85,30.01,29.50,12,5,0,0.06
2013-1-30,71.1,63.9,34.4,65.4,58.8,27.0,88,83,74,29.77,29.35,13,10,0,1.14
2013-1-31,44.9,36.5,28.0,35.6,27.5,22.8,96,70,54,30.10,29.79,15,6,0,0.01
2013-2-1,28.9,21.6,13.9,25.5,14.8,7.9,91,75,59,30.46,30.13,15,4,0,0.00
2013-2-2,42.9,32.0,23.5,35.7,28.1,18.5,96,86,67,30.30,30.00,7,2,0,0.03
2013-2-3,41.7,35.6,26.2,36.7,31.4,24.5,95,85,69,30.11,29.92,15,4,0,0.01
2013-2-4,55.0,40.2,25.1,40.3,31.4,23.7,96,74,47,30.08,29.81,8,1,0,0.00
2013-2-5,61.2,50.5,44.2,46.7,40.2,34.1,90,69,40,29.96,29.81,6,1,0,0.00
2013-2-6,56.2,44.0,32.7,39.1,35.3,31.1,95,73,44,30.16,29.96,3,0,0,0.00
2013-2-7,66.9,52.3,40.4,51.3,42.7,33.1,87,70,55,30.02,29.78,5,1,0,0.00
2013-2-8,53.1,41.4,33.7,50.2,38.6,30.0,96,90,82,30.27,29.76,13,6,0,0.24
2013-2-9,55.2,40.9,29.4,36.2,32.2,26.8,91,73,46,30.31,30.04,2,0,0,0.00
2013-2-10,50.1,48.6,47.1,40.4,36.4,33.9,77,63,57,30.04,30.00,2,1,0,0.02
2013-2-12,52.9,46.9,30.7,37.4,35.8,29.4,96,66,50,30.07,29.76,2,0,0,0.00
2013-2-13,44.5,38.5,34.4,39.6,36.0,33.4,96,91,69,29.92,29.65,13,3,0,0.21
2013-2-14,60.1,44.7,33.9,43.7,37.2,32.9,97,78,46,29.93,29.85,8,2,0,0.01
2013-2-15,49.2,39.9,29.4,40.2,33.1,23.1,94,77,57,30.11,29.91,10,3,0,0.00
2013-2-16,37.7,28.6,20.9,26.8,19.9,13.4,95,72,41,30.14,30.06,14,3,0,0.00
2013-2-17,47.0,32.2,17.9,26.2,20.3,14.0,92,63,43,30.22,30.08,4,0,0,0.00
2013-2-18,63.4,48.0,37.0,41.3,32.8,23.6,68,56,42,30.08,29.77,13,5,0,0.00
2013-2-21,40.7,38.8,36.7,39.6,37.8,35.7,96,96,96,29.87,29.77,2,1,0,0.59
2013-2-22,60.4,49.6,39.4,51.0,45.0,37.0,97,85,60,29.95,29.74,8,3,0,0.01
2013-2-23,48.0,39.5,33.3,36.9,33.8,29.0,94,81,61,29.95,29.84,4,1,0,0.00
2013-2-24,52.7,38.2,24.9,35.4,29.4,23.7,96,73,46,30.07,29.92,2,0,0,0.00
2013-2-25,63.2,48.7,33.1,45.6,35.3,27.8,81,61,39,29.96,29.47,3,0,0,0.00
2013-2-26,54.3,47.4,39.3,50.4,44.7,36.9,96,91,67,29.59,29.28,9,4,0,0.36
2013-2-27,39.3,38.1,36.9,37.2,34.6,32.5,94,87,82,29.81,29.59,10,5,0,0.00
2013-2-28,38.2,35.5,32.5,33.6,31.5,28.6,95,85,77,29.98,29.78,10,3,0,0.01
2013-3-1,38.7,34.1,31.9,36.3,33.0,30.9,97,95,90,29.99,29.93,8,1,0,0.07
2013-3-2,32.3,31.5,30.8,31.5,30.1,27.5,97,95,87,30.06,29.96,10,4,0,0.03
2013-3-4,58.4,49.3,33.5,37.6,32.4,24.2,73,53,43,30.05,29.76,6,2,0,0.00
2013-3-5,52.4,48.1,45.6,48.0,43.6,36.2,96,86,54,29.76,29.68,2,0,0,0.10
2013-3-8,46.7,43.1,40.3,32.7,32.0,31.2,73,65,56,30.23,30.20,0,0,0,0.01
2013-3-9,63.9,52.0,38.4,40.6,36.6,31.7,82,58,39,30.20,29.92,5,1,0,0.00
2013-3-10,69.9,60.3,53.7,53.6,44.2,39.1,96,57,40,29.92,29.67,13,4,0,0.17
2013-3-11,56.4,46.6,39.1,55.0,44.0,32.9,97,91,78,29.90,29.64,9,3,0,1.17
2013-3-12,52.9,41.8,32.0,36.5,32.5,28.8,88,71,46,30.06,29.90,9,2,0,0.00
2013-3-13,42.8,37.0,30.0,34.4,27.6,22.7,79,69,56,30.33,30.05,14,6,0,0.00
2013-3-14,49.2,34.9,21.0,36.0,27.7,19.5,95,77,42,30.36,30.14,5,0,0,0.00
2013-3-15,73.9,54.9,36.5,54.8,43.4,32.7,92,68,47,30.14,29.73,9,2,0,0.00
2013-3-16,74.8,65.2,51.0,57.9,53.2,46.6,86,66,54,29.84,29.68,11,6,0,0.00
2013-3-17,51.0,46.0,41.5,46.9,43.9,40.4,96,93,83,29.89,29.73,7,1,0,0.07
2013-3-18,63.6,55.2,43.4,60.3,52.7,42.1,96,91,85,29.72,29.56,9,4,0,0.50
2013-3-19,53.2,45.7,35.0,37.1,28.3,20.4,96,53,31,30.11,30.02,10,4,0,0.00
2013-3-20,49.0,37.1,27.9,34.8,27.7,18.7,91,70,51,30.10,29.97,16,4,0,0.00
2013-3-21,41.7,33.3,21.8,23.9,20.8,17.5,87,61,48,30.02,29.90,10,2,0,0.00
2013-3-22,44.6,38.8,31.5,31.7,26.5,21.9,70,61,50,29.97,29.89,1,0,0,0.00
2013-3-23,58.4,47.2,39.9,48.1,40.9,30.7,95,79,62,29.92,29.65,3,0,0,0.06
2013-3-24,52.9,46.5,43.1,51.8,45.2,41.8,96,95,95,29.65,29.32,5,0,0,0.07
2013-3-25,32.9,32.6,32.4,31.3,31.0,30.6,95,94,93,30.04,29.99,6,4,0,0.00
2013-3-26,38.9,34.9,31.3,32.8,31.0,29.8,96,86,73,30.26,30.04,9,3,0,0.01
2013-3-27,49.7,37.8,26.3,34.0,29.3,24.8,95,73,51,30.32,30.23,7,2,0,0.00
2013-3-28,58.2,43.5,29.7,40.8,34.2,27.5,94,72,50,30.31,30.20,5,0,0,0.00
2013-3-29,50.5,46.6,43.1,49.4,43.4,36.8,96,89,71,30.24,30.10,2,0,0,0.48
2013-3-30,56.6,49.6,45.1,51.9,47.6,43.8,97,93,83,30.14,29.82,2,0,0,0.29
2013-3-31,59.0,53.5,47.8,54.9,51.6,46.4,96,93,80,29.84,29.77,8,1,0,0.07
2013-4-1,59.0,49.1,41.1,46.9,42.0,32.1,97,78,57,30.08,29.81,10,3,0,0.01
2013-4-2,50.0,42.0,34.4,32.4,29.4,26.0,88,62,43,30.21,30.08,5,0,0,0.00
2013-4-3,54.2,44.8,34.4,32.0,27.9,23.8,70,52,38,30.24,30.11,4,1,0,0.00
2013-4-4,46.5,43.4,40.1,45.4,37.3,28.3,96,81,53,30.11,29.91,2,0,0,0.22
2013-4-5,67.5,51.9,37.0,47.5,41.7,35.7,100,72,41,30.04,29.93,7,1,0,0.00
2013-4-6,73.7,58.3,40.4,49.6,43.7,38.0,97,62,38,30.03,29.84,7,2,0,0.00
2013-4-7,75.3,63.0,59.0,57.9,49.5,44.3,73,62,46,29.94,29.86,7,3,0,0.00
2013-4-8,77.5,70.9,60.3,62.5,59.2,54.1,80,67,53,29.90,29.79,8,4,0,0.00
2013-4-9,77.0,69.4,60.8,67.7,62.5,57.3,89,79,71,29.99,29.85,7,1,0,0.00
2013-4-10,86.7,74.7,65.9,69.7,63.9,61.2,87,70,53,29.90,29.65,7,2,0,0.00
2013-4-11,75.8,67.2,59.5,64.2,61.4,58.1,95,83,62,29.68,29.55,8,2,0,1.15
2013-4-12,56.5,52.5,49.2,46.2,44.7,43.3,82,75,67,29.87,29.79,5,1,0,0.00
2013-4-13,65.9,51.8,36.0,47.8,41.7,34.5,96,71,47,30.01,29.87,4,1,0,0.00
2013-4-14,73.4,59.6,49.6,55.4,48.3,42.0,86,67,44,29.91,29.75,11,2,0,0.00
2013-4-15,80.6,67.6,54.6,66.2,59.2,52.9,95,76,57,29.87,29.76,4,1,0,0.00
2013-4-16,80.8,70.7,65.4,72.1,65.9,61.7,90,85,72,30.00,29.85,7,3,0,0.00
2013-4-17,88.2,76.2,67.9,74.0,68.9,64.9,96,80,56,30.00,29.82,6,2,0,0.00
2013-4-18,81.7,74.3,68.4,68.9,65.6,63.1,92,75,58,29.82,29.50,11,6,0,0.04
2013-4-19,68.3,46.7,38.6,65.4,40.8,34.8,96,80,68,30.03,29.45,7,3,0,0.27
2013-4-20,59.8,47.5,34.4,41.9,37.0,33.0,95,70,45,30.23,30.03,11,2,0,0.00
2013-4-21,66.3,52.7,38.5,47.3,39.7,33.2,82,63,44,30.32,30.15,4,0,0,0.00
2013-4-22,74.4,59.4,41.4,55.2,46.6,39.3,94,65,43,30.18,29.98,5,1,0,0.00
2013-4-23,76.2,63.4,49.8,61.3,53.9,46.3,88,72,58,30.01,29.83,8,2,0,0.00
2013-4-24,66.1,63.7,45.8,62.0,57.9,44.4,95,82,74,29.86,29.70,15,4,0,0.20
2013-4-25,63.9,58.0,44.7,46.4,43.9,41.2,92,61,47,30.29,30.23,7,1,0,0.00
2013-4-26,59.9,49.8,40.4,51.9,46.2,39.1,96,88,61,30.37,30.19,5,0,0,0.20
2013-4-27,59.7,53.5,49.2,58.6,52.2,47.8,96,95,95,30.26,29.85,5,2,0,2.73
2013-4-28,67.0,61.3,53.7,61.0,57.2,52.6,96,87,71,29.87,29.78,7,2,0,0.05
2013-4-29,75.7,60.3,46.3,61.8,54.1,44.8,96,82,53,29.94,29.81,2,0,0,0.00
2013-4-30,81.8,66.8,51.2,63.7,57.6,50.1,96,75,47,29.91,29.82,3,0,0,0.00
2013-5-1,81.6,69.2,59.0,68.1,62.1,56.2,94,79,58,30.01,29.89,3,0,0,0.00
2013-5-2,80.3,69.0,61.0,66.1,61.8,57.5,95,79,59,30.05,29.93,3,0,0,0.00
2013-5-3,74.9,66.7,59.0,63.5,59.9,57.1,96,80,62,29.94,29.72,8,3,0,0.08
2013-5-4,59.0,45.9,43.4,57.9,44.6,42.1,96,95,90,29.89,29.77,4,0,0,0.96
2013-5-5,58.2,50.5,45.0,55.0,48.8,43.7,96,94,87,29.87,29.71,2,0,0,0.17
2013-5-6,67.6,56.1,47.8,58.5,52.4,46.4,96,89,60,29.82,29.68,2,0,0,0.10
2013-5-7,71.6,58.6,44.4,62.4,54.3,43.1,95,86,68,29.91,29.81,4,0,0,0.01
2013-5-8,61.0,56.7,54.1,59.3,55.3,52.7,96,95,93,29.90,29.84,0,0,0,0.00
2013-5-9,82.4,71.1,55.7,69.4,62.4,54.3,96,76,55,29.96,29.84,3,1,0,0.00
2013-5-10,68.7,65.5,62.7,66.5,63.1,60.9,96,92,81,29.87,29.77,4,0,0,0.91
2013-5-11,63.4,62.5,61.1,61.9,61.1,59.7,95,95,94,29.82,29.81,4,0,0,0.04
2013-5-14,85.7,77.4,58.2,68.2,62.8,49.2,73,61,50,30.02,29.84,5,2,0,0.00
2013-5-15,85.3,74.0,65.0,66.2,60.3,54.9,77,64,37,29.97,29.84,6,1,0,0.00
2013-5-16,85.1,73.7,65.4,70.7,64.3,59.0,86,73,54,29.91,29.81,3,0,0,0.00
2013-5-17,69.1,65.7,62.4,67.6,63.4,60.1,96,92,82,29.95,29.84,4,0,0,0.50
2013-5-18,67.3,64.3,63.6,65.8,62.8,62.1,95,95,94,29.89,29.84,0,0,0,0.00
2013-5-19,68.7,68.7,68.7,66.9,66.9,66.9,94,94,94,29.82,29.82,0,0,0,0.00
2013-5-20,76.3,74.5,73.0,71.8,70.8,69.9,90,88,86,29.81,29.79,0,0,0,0.00
2013-5-21,81.2,71.3,64.0,74.3,68.5,62.8,96,91,76,29.89,29.72,7,1,0,0.56
2013-5-22,77.5,68.6,62.2,71.7,65.7,60.5,96,91,78,29.82,29.66,3,0,0,0.08
2013-5-23,73.5,66.5,61.3,64.2,61.2,57.9,96,84,63,29.97,29.76,10,2,0,0.01
2013-5-24,70.5,60.5,53.0,59.4,53.5,51.0,95,79,55,30.22,29.96,9,2,0,0.00
2013-5-25,77.7,60.7,46.0,59.5,51.3,44.9,96,75,42,30.21,30.06,2,0,0,0.00
2013-5-26,83.4,68.8,56.2,67.7,58.9,52.4,93,73,49,30.13,30.00,2,0,0,0.00
2013-5-27,86.7,73.4,60.4,70.1,63.9,57.8,92,73,51,30.02,29.88,4,1,0,0.00
2013-5-28,87.1,77.1,68.0,70.1,65.5,62.3,83,69,51,29.96,29.87,6,1,0,0.00
2013-5-29,88.7,77.9,66.4,75.2,68.7,64.0,93,74,58,29.99,29.88,4,1,0,0.00
2013-5-30,86.1,78.1,69.2,76.5,70.2,65.3,88,77,69,29.99,29.86,6,2,0,0.00
2013-5-31,83.3,76.3,71.5,77.7,71.8,68.2,95,86,78,29.92,29.81,4,1,0,0.05
2013-6-1,83.5,71.6,65.6,76.4,68.6,64.1,96,90,74,29.87,29.69,7,1,0,0.03
2013-6-2,80.0,70.1,63.1,71.6,66.3,61.3,96,88,67,29.84,29.76,6,1,0,0.01
2013-6-3,76.9,63.5,56.4,63.5,59.3,55.0,96,87,61,29.87,29.83,4,0,0,0.00
2013-6-4,83.8,73.8,53.0,68.7,63.7,51.6,96,72,54,29.94,29.85,1,0,0,0.00
2013-6-5,85.8,71.4,60.2,74.3,67.4,58.7,96,88,63,29.88,29.71,2,0,0,0.00
2013-6-6,80.7,72.0,67.0,73.9,69.1,65.2,95,91,77,29.74,29.63,4,0,0,0.04
2013-6-7,80.2,68.9,62.9,72.3,66.1,61.3,96,91,70,29.75,29.64,8,0,0,0.31
2013-6-8,83.3,70.5,61.4,70.7,64.3,60.0,96,83,54,29.90,29.74,1,0,0,0.01
2013-6-9,66.8,62.2,60.0,65.5,60.8,58.6,96,95,94,29.92,29.89,1,0,0,0.00
2013-6-10,82.8,76.7,66.5,77.1,68.9,65.0,95,78,63,29.82,29.71,5,1,0,0.43
2013-6-11,91.3,76.5,61.6,77.8,69.7,59.8,96,81,57,29.90,29.81,2,0,0,0.00
2013-6-12,93.3,80.9,74.9,81.3,76.6,73.4,96,87,64,29.92,29.82,2,0,0,0.00
2013-6-13,85.8,78.4,67.3,78.0,70.3,63.8,89,76,65,29.83,29.69,13,6,0,0.00
2013-6-14,82.6,70.3,57.2,66.4,61.9,56.1,96,77,53,29.93,29.83,8,1,0,0.00
2013-6-15,89.3,74.3,58.9,72.9,65.9,57.5,96,77,51,29.98,29.88,2,0,0,0.00
2013-6-16,86.7,77.4,67.9,77.0,71.8,66.3,95,84,69,29.94,29.84,1,0,0,0.00
2013-6-17,90.4,77.4,69.0,80.4,73.1,67.8,96,87,67,29.86,29.75,1,0,0,0.00
2013-6-20,82.3,73.6,69.0,79.9,69.9,66.2,95,88,75,30.02,29.98,0,0,0,0.12
2013-6-21,88.8,76.7,65.6,77.0,70.8,64.1,96,83,61,30.09,29.99,2,0,0,0.00
2013-6-22,90.7,79.1,67.8,76.7,71.8,66.1,96,80,59,30.07,29.95,2,0,0,0.00
2013-6-23,89.3,78.7,67.4,75.7,70.8,65.9,96,78,57,30.03,29.93,3,0,0,0.00
2013-6-24,88.1,77.8,70.4,78.2,72.9,69.0,96,86,64,30.05,29.94,5,0,0,0.00
2013-6-25,92.0,80.7,70.7,81.4,75.1,69.3,96,84,65,29.98,29.82,2,0,0,0.00
2013-6-26,91.8,81.9,73.0,80.2,76.0,71.8,96,83,65,29.86,29.68,4,1,0,0.00
2013-6-27,83.3,79.5,77.0,75.8,73.5,72.0,91,82,71,29.74,29.68,4,0,0,0.00
2013-6-28,89.1,78.9,72.6,78.2,72.9,68.6,95,83,54,29.70,29.54,8,1,0,0.03
2013-6-29,85.5,75.5,64.5,71.0,66.7,62.1,96,76,56,29.59,29.51,9,1,0,0.11
2013-6-30,81.6,69.6,60.4,70.6,65.6,59.0,96,88,63,29.69,29.57,3,0,0,0.06
2013-7-1,75.7,67.9,65.4,69.1,65.9,63.8,96,93,78,29.78,29.65,2,0,0,0.04
2013-7-2,80.8,70.4,62.9,71.2,65.9,61.4,96,86,69,29.92,29.77,2,0,0,0.00
2013-7-3,85.3,72.4,60.4,72.6,66.2,58.7,95,82,58,29.98,29.90,2,0,0,0.06
2013-7-4,68.9,67.7,66.0,67.3,65.9,64.2,95,94,94,29.99,29.93,1,0,0,1.27
2013-7-5,80.8,70.4,65.0,76.5,68.5,63.2,95,94,85,30.00,29.92,2,0,0,0.73
2013-7-6,76.9,69.9,65.0,73.0,67.9,63.3,96,93,85,30.02,29.94,5,0,0,1.41
2013-7-7,89.2,75.1,63.9,77.5,70.0,62.4,96,86,59,30.02,29.93,4,0,0,0.02
2013-7-8,91.0,79.2,69.4,80.2,73.9,67.9,96,85,61,30.05,29.95,1,0,0,0.00
2013-7-9,92.8,81.4,71.3,81.4,75.7,69.5,96,84,63,30.01,29.89,1,0,0,0.00
2013-7-10,91.8,79.2,72.2,82.8,76.1,70.7,96,91,74,29.92,29.76,2,0,0,0.27
2013-7-11,87.0,77.0,70.3,79.8,72.6,65.7,95,87,73,29.85,29.80,9,1,0,0.01
2013-7-12,84.0,73.0,63.7,69.3,64.8,62.5,96,77,54,29.93,29.85,5,0,0,0.00
2013-7-13,85.7,72.3,58.9,72.3,65.6,57.4,98,81,58,29.93,29.87,2,0,0,0.00
2013-7-14,87.2,77.2,69.1,77.9,72.7,67.5,96,87,71,30.03,29.93,2,0,0,0.00
2013-7-15,90.2,80.5,72.9,78.2,74.1,71.1,94,82,60,30.14,30.03,4,1,0,0.00
2013-7-16,93.8,82.1,70.4,79.2,74.6,69.2,96,80,59,30.20,30.11,1,0,0,0.00
2013-7-17,93.7,82.0,70.6,82.0,75.5,69.0,96,82,61,30.19,30.05,6,0,0,0.02
2013-7-18,83.9,78.0,73.6,78.2,75.3,72.0,96,92,83,29.97,29.93,0,0,0,0.00
2013-7-19,91.0,77.0,69.8,79.4,73.1,68.3,96,89,67,29.96,29.90,2,0,0,0.00
2013-7-21,83.3,74.1,70.5,77.9,72.0,69.0,96,93,83,29.83,29.77,3,0,0,0.01
2013-7-22,71.2,70.3,69.7,69.7,68.8,68.2,95,95,95,29.83,29.74,1,0,0,0.00
2013-7-23,88.6,82.6,75.9,79.9,76.5,73.8,94,82,70,29.76,29.67,4,1,0,0.01
2013-7-24,84.4,74.7,65.8,76.7,69.8,64.0,96,86,66,29.84,29.70,7,1,0,0.00
2013-7-25,83.8,70.8,60.3,71.0,65.2,58.9,96,84,61,29.94,29.83,5,1,0,0.00
2013-7-26,84.5,71.9,59.0,71.9,66.0,57.6,96,83,60,29.96,29.87,2,0,0,0.00
2013-7-27,83.6,73.2,66.5,73.6,68.8,65.0,96,87,68,29.88,29.75,3,0,0,0.00
2013-7-28,77.5,68.6,56.8,66.8,59.4,53.1,95,74,50,29.98,29.83,3,0,0,0.00
2013-7-29,82.5,69.7,56.2,70.1,62.3,54.8,96,79,54,30.07,29.97,1,0,0,0.00
2013-7-30,78.5,70.1,63.9,74.0,67.4,62.2,96,91,77,30.07,29.97,3,0,0,0.00
2013-7-31,86.0,74.9,67.5,81.1,72.2,66.0,97,92,81,29.98,29.80,4,0,0,0.00
2013-8-1,83.2,73.5,67.5,74.1,69.4,66.0,96,88,68,29.92,29.83,6,1,0,0.00
2013-8-2,85.8,70.8,60.3,72.7,65.2,58.9,96,85,55,29.93,29.87,0,0,0,0.00
2013-8-3,82.7,76.6,69.6,77.6,73.2,67.8,96,89,80,29.94,29.86,1,0,0,0.00
2013-8-4,83.8,74.8,66.8,72.7,68.4,63.1,96,82,59,30.00,29.91,5,1,0,0.00
2013-8-5,83.6,71.4,61.1,71.8,66.3,60.0,96,85,59,29.99,29.83,1,0,0,0.00
2013-8-6,82.0,75.0,69.7,79.3,73.5,68.5,96,95,90,29.85,29.79,0,0,0,0.00
2013-8-7,85.0,76.7,72.4,80.5,74.6,71.2,96,93,84,29.86,29.78,2,0,0,0.00
2013-8-8,80.3,74.9,72.5,76.7,72.6,69.5,95,92,87,29.86,29.78,1,0,0,0.00
2013-8-9,90.2,79.0,72.1,82.9,74.5,69.0,90,86,75,29.89,29.81,3,0,0,0.00
2013-8-10,86.9,79.4,72.0,78.4,73.9,67.9,89,83,74,30.00,29.92,6,0,0,0.00
2013-8-11,84.9,77.4,71.6,78.9,72.0,66.2,87,84,79,30.01,29.93,6,0,0,0.00
2013-8-12,84.4,76.0,70.6,76.0,67.9,57.6,81,76,58,29.97,29.82,5,0,0,0.00
2013-8-13,83.5,75.1,69.7,73.5,59.9,49.8,74,60,43,29.90,29.80,7,1,0,0.00
2013-8-14,76.0,67.1,57.6,63.8,53.9,38.6,75,63,49,29.99,29.89,6,1,0,0.00
2013-8-15,81.3,66.8,53.5,68.8,52.2,30.6,72,60,39,30.00,29.91,3,0,0,0.00
2013-8-16,79.9,70.8,63.1,69.6,54.7,35.7,71,58,33,29.98,29.92,0,0,0,0.00
2013-8-17,79.1,71.6,65.9,70.1,49.2,35.8,75,47,30,30.03,29.94,1,0,0,0.00
2013-8-18,81.8,72.0,66.5,72.8,50.8,32.0,77,50,27,30.04,29.96,1,0,0,0.34
2013-8-19,86.5,74.2,66.1,75.9,50.9,31.8,76,48,26,30.03,29.91,0,0,0,0.00
2013-8-20,87.0,76.2,68.7,76.8,49.9,30.8,72,43,22,30.01,29.92,2,0,0,0.02
2013-8-21,91.4,78.7,70.7,79.8,53.6,31.2,72,46,21,30.05,29.95,2,0,0,0.00
2013-8-22,89.5,79.4,70.9,78.0,55.7,32.3,75,49,23,30.03,29.91,5,0,0,0.01
2013-8-23,89.3,74.1,68.5,78.2,41.6,30.3,73,34,23,29.97,29.90,1,0,0,0.48
2013-8-24,89.1,76.2,65.8,77.9,52.9,29.0,76,48,22,30.08,29.96,1,0,0,0.01
2013-8-25,88.8,76.4,66.3,76.5,57.2,28.4,71,53,22,30.20,30.08,2,0,0,0.00
2013-8-26,89.7,76.3,66.2,77.2,55.0,30.6,72,50,25,30.17,30.02,1,0,0,0.00
2013-8-27,87.5,76.4,66.9,76.9,55.4,32.9,72,51,26,30.04,29.92,2,0,0,0.00
2013-8-28,89.7,78.5,69.2,78.4,54.2,29.6,71,47,22,29.96,29.87,2,0,0,0.00
2013-8-29,93.0,81.0,71.5,80.7,58.6,30.8,70,49,22,29.92,29.82,3,0,0,0.00
2013-8-30,93.8,82.8,73.4,80.3,56.6,31.1,68,44,19,29.86,29.76,3,0,0,0.00
2013-8-31,93.0,81.9,73.1,80.1,55.8,29.9,68,45,20,29.80,29.68,2,0,0,0.00
2013-9-1,85.6,74.5,67.4,72.2,47.0,28.2,65,40,22,29.81,29.70,6,0,0,0.40
2013-9-2,89.3,77.1,69.1,76.0,46.4,29.0,66,37,21,29.80,29.71,2,0,0,0.20
2013-9-3,83.8,73.9,65.4,71.5,48.0,27.6,72,44,22,29.93,29.77,4,0,0,0.00
2013-9-4,85.6,71.3,59.5,71.8,45.7,22.0,68,43,20,30.03,29.93,1,0,0,0.01
2013-9-5,86.2,70.6,57.8,73.2,46.0,22.1,71,45,22,30.08,30.01,1,0,0,0.01
2013-9-6,89.5,73.4,59.5,74.8,49.3,23.6,73,46,22,30.06,29.95,1,0,0,0.00
2013-9-7,89.9,75.2,61.6,76.9,50.5,25.4,74,45,22,29.98,29.85,1,0,0,0.00
2013-9-8,92.5,77.5,68.9,77.5,52.3,29.5,72,45,23,29.89,29.81,2,0,0,0.00
2013-9-9,93.3,80.3,71.3,81.3,60.8,36.5,73,54,28,29.93,29.85,1,0,0,0.00
2013-9-10,91.1,80.6,73.0,79.4,61.0,35.4,69,53,25,30.03,29.92,1,0,0,0.00
2013-9-12,87.0,75.8,69.8,71.2,39.4,28.1,60,29,17,29.95,29.80,2,0,0,1.77
2013-9-13,75.2,67.1,56.4,61.6,41.1,21.2,66,43,19,29.94,29.84,6,1,0,0.01
2013-9-14,75.7,61.1,49.7,61.6,39.4,16.2,65,46,26,30.02,29.93,1,0,0,0.00
2013-9-15,83.5,66.3,51.2,68.9,40.4,16.8,64,41,21,30.01,29.95,1,0,0,0.00
2013-9-16,78.3,68.0,58.7,67.2,43.2,22.9,69,44,23,30.07,29.96,4,0,0,0.01
2013-9-17,83.9,70.8,63.5,72.1,49.4,28.9,71,49,26,30.10,29.98,0,0,0,0.00
2013-9-18,82.5,73.0,66.9,70.9,48.8,29.8,69,45,25,30.05,29.95,2,0,0,0.00
2013-9-19,87.6,75.5,66.8,74.8,50.2,29.8,67,44,25,30.02,29.88,1,0,0,0.00
2013-9-20,86.0,75.0,68.0,74.2,53.1,32.3,68,48,23,29.91,29.72,3,0,0,0.06
2013-9-21,71.3,64.8,56.3,61.0,47.4,25.7,73,56,25,29.78,29.68,7,3,0,0.40
2013-9-22,75.8,61.4,48.8,59.9,40.6,17.9,72,49,26,29.86,29.77,4,0,0,0.01
2013-9-23,81.1,63.8,50.1,68.5,43.9,20.1,72,50,27,29.91,29.83,0,0,0,0.00
2013-9-24,82.5,69.4,59.5,70.9,47.2,25.7,71,48,26,29.89,29.72,1,0,0,0.01
2013-9-25,78.4,69.5,64.0,67.8,42.3,27.7,70,40,24,29.77,29.69,0,0,0,0.01
2013-9-26,82.0,68.1,59.9,69.1,43.4,25.0,72,44,23,29.92,29.77,1,0,0,0.00
2013-9-27,85.0,67.0,51.9,70.2,45.9,19.8,71,49,24,30.02,29.92,1,0,0,0.00
2013-9-28,82.4,69.3,60.4,68.2,50.0,30.1,72,52,31,30.07,29.95,3,0,0,0.00
2013-9-29,71.1,64.5,59.7,62.0,44.8,26.3,73,51,26,29.99,29.90,5,0,0,0.04
2013-9-30,77.5,68.0,61.1,66.5,45.8,25.9,72,48,26,29.93,29.85,2,0,0,0.00
2013-10-1,82.9,72.2,63.9,71.6,52.3,31.8,70,51,28,29.99,29.89,2,0,0,0.00
2013-10-2,75.2,71.1,69.4,39.3,32.8,29.9,29,24,22,30.02,29.94,1,0,0,0.85
2013-10-3,85.4,74.1,67.7,70.9,43.3,27.7,62,36,17,29.99,29.87,2,0,0,0.00
2013-10-4,85.5,74.0,65.5,66.4,37.5,20.2,53,28,14,29.99,29.90,1,0,0,0.00
2013-10-5,87.8,76.7,68.7,66.6,37.6,18.8,50,26,12,29.95,29.79,3,0,0,0.00
2013-10-6,74.1,73.9,73.8,47.6,42.4,34.9,39,33,24,29.79,29.70,3,1,0,0.00
2013-10-7,65.5,56.6,49.4,53.0,41.0,22.2,67,57,34,30.04,29.94,3,0,0,0.00
2013-10-8,72.7,57.5,45.4,56.5,37.2,15.5,69,48,28,30.09,29.99,2,0,0,0.00
2013-10-9,80.6,63.6,49.6,68.1,41.7,18.4,67,47,24,30.08,29.99,1,0,0,0.00
2013-10-10,79.9,66.0,56.8,66.5,43.4,22.2,71,47,24,30.06,29.93,1,0,0,0.00
2013-10-11,82.5,65.1,52.3,67.3,43.0,20.9,73,47,25,30.00,29.89,1,0,0,0.00
2013-10-12,79.6,65.6,52.4,68.1,41.9,21.0,71,45,24,30.01,29.91,2,0,0,0.00
2013-10-13,79.7,67.5,59.0,69.0,45.0,24.1,72,48,24,30.15,30.01,8,0,0,0.01
2013-10-14,79.0,64.7,53.5,68.1,48.9,27.4,72,58,33,30.15,30.01,2,0,0,0.00
2013-10-15,74.4,67.0,61.5,64.1,43.7,26.4,71,46,26,30.02,29.89,3,0,0,0.00
2013-10-16,65.8,61.4,57.9,33.0,25.9,23.2,31,26,24,29.89,29.84,5,0,0,0.24
2013-10-17,62.4,55.7,47.5,52.0,28.8,16.0,70,38,26,29.93,29.82,5,1,0,0.12
2013-10-18,69.0,53.8,41.8,56.0,32.4,13.3,70,46,25,30.00,29.87,1,0,0,0.00
2013-10-19,55.1,50.7,40.5,46.4,32.8,16.2,74,51,29,29.99,29.80,13,1,0,0.06
2013-10-20,65.4,49.1,37.8,49.8,30.6,11.9,76,51,28,30.04,29.93,1,0,0,0.02
2013-10-21,71.0,54.2,42.1,54.0,42.9,27.4,78,66,50,29.99,29.87,3,0,0,0.00
2013-10-22,62.0,52.8,46.7,50.3,38.1,21.8,76,59,35,29.98,29.78,6,0,0,0.06
2013-10-23,52.0,45.7,38.3,43.1,35.8,20.1,78,68,44,30.04,29.76,12,4,0,0.00
2013-10-24,51.1,44.0,33.6,41.9,30.4,17.4,76,60,35,30.28,30.03,10,2,0,0.00
2013-10-25,50.7,37.0,26.7,36.3,23.9,9.8,78,60,43,30.44,30.28,3,0,0,0.01
2013-10-26,57.3,44.1,29.4,46.0,32.2,14.1,77,63,51,30.28,29.98,5,1,0,0.01
2013-10-27,66.7,55.0,44.2,56.8,41.7,22.1,76,62,34,30.02,29.94,2,0,0,0.00
2013-10-28,66.2,58.7,50.5,51.0,27.0,16.8,58,30,23,30.17,29.97,1,0,0,0.04
2013-10-29,68.9,57.1,45.8,51.7,27.6,14.5,55,33,21,30.22,30.05,1,0,0,0.01
2013-10-30,78.5,68.9,62.9,65.2,47.0,28.1,65,48,26,30.09,29.94,5,1,0,0.00
2013-10-31,70.8,66.2,62.4,55.1,36.6,22.2,64,37,20,29.94,29.42,13,5,0,0.88
2013-11-1,69.4,60.7,51.6,54.5,38.3,16.9,68,46,21,29.74,29.50,10,2,0,0.00
2013-11-2,59.7,50.5,43.7,48.7,32.3,12.9,70,52,26,30.09,29.73,10,2,0,0.03
2013-11-3,58.7,45.1,33.7,44.8,28.0,8.4,76,52,28,30.25,30.08,2,0,0,0.01
2013-11-4,63.1,51.7,37.3,48.1,39.6,14.2,74,64,35,30.28,30.17,6,1,0,0.00
2013-11-5,71.3,58.3,50.9,53.2,46.8,41.8,73,66,51,30.29,30.12,3,0,0,0.00
2013-11-6,63.7,56.4,54.7,52.5,46.9,45.4,74,70,61,30.12,30.03,6,2,0,0.00
2013-11-9,63.0,54.8,47.3,42.1,39.0,35.8,73,56,43,30.19,30.08,6,2,0,0.00
2013-11-10,61.5,49.0,36.7,45.8,35.6,23.3,77,61,41,30.27,30.14,6,1,0,0.00
2013-11-11,70.5,49.5,31.0,41.7,30.3,13.5,77,50,24,30.24,30.05,2,0,0,0.00
2013-11-12,54.7,39.0,29.0,44.3,27.0,16.8,79,63,45,30.57,30.07,13,6,0,0.06
2013-11-13,45.8,33.0,23.9,30.1,23.0,14.2,79,67,47,30.64,30.38,1,0,0,0.00
2013-11-14,59.0,43.1,28.7,31.0,26.4,22.1,79,54,31,30.38,30.08,5,1,0,0.00
2013-11-15,52.9,47.3,37.9,44.7,28.3,18.1,76,50,27,30.11,29.99,3,0,0,0.08
2013-11-16,63.9,58.0,51.4,31.8,21.7,18.2,30,24,20,30.01,29.84,8,2,0,0.00
2013-11-17,69.8,65.6,62.9,37.5,27.8,18.1,35,25,15,29.84,29.58,10,4,0,1.27
2013-11-19,48.9,43.7,36.8,35.9,32.1,24.1,66,63,57,30.23,30.13,0,0,0,0.00
2013-11-20,62.1,46.0,31.6,42.5,29.0,5.9,66,52,31,30.16,30.05,6,1,0,0.00
2013-11-21,67.0,55.8,45.7,53.5,39.3,23.3,66,55,26,30.18,30.06,9,1,0,0.01
2013-11-22,59.0,54.1,44.3,31.4,18.4,9.4,35,25,21,30.27,30.08,10,4,0,0.78
2013-11-23,45.0,38.4,24.6,33.5,19.5,8.8,74,49,24,30.50,30.25,13,7,0,0.00
2013-11-24,33.7,25.8,19.5,21.3,17.3,12.4,75,70,57,30.62,30.43,8,2,0,0.00
2013-11-25,41.6,33.1,26.9,28.7,17.4,5.2,73,54,30,30.43,30.11,6,1,0,0.00
2013-11-26,37.6,35.5,34.2,23.9,8.8,5.2,63,33,27,30.13,29.83,12,4,0,0.19
2013-11-27,35.1,26.7,18.3,23.6,17.4,11.1,76,68,57,30.31,29.92,15,8,0,0.00
2013-11-28,44.5,28.5,15.7,24.5,15.9,3.9,73,60,43,30.40,30.28,4,1,0,0.00
2013-11-29,51.5,35.6,22.8,33.9,22.8,5.4,76,60,35,30.52,30.38,1,0,0,0.00
2013-11-30,58.6,43.1,28.1,37.1,28.2,13.7,72,57,37,30.38,30.14,8,2,0,0.00
2013-12-1,53.1,48.4,42.3,41.4,37.1,31.6,71,65,60,30.14,29.86,4,1,0,0.00
2013-12-2,59.2,51.9,47.9,49.2,37.9,16.8,74,61,25,29.86,29.63,2,0,0,0.00
2013-12-3,62.0,55.3,51.8,42.5,21.1,15.4,49,27,21,29.71,29.64,3,0,0,0.00
2013-12-4,75.8,65.7,56.8,60.9,35.8,17.2,60,36,16,29.72,29.61,8,3,0,0.00
2013-12-5,69.5,52.2,34.4,32.4,18.0,5.4,35,26,18,30.05,29.72,13,5,0,1.24
2013-12-6,34.4,32.3,28.7,6.1,5.0,4.2,36,31,29,30.30,30.02,8,2,0,0.56
2013-12-7,29.2,27.6,24.8,10.8,5.8,1.7,46,39,35,30.48,30.30,0,0,0,0.00
2013-12-8,39.3,34.5,29.2,9.6,7.5,5.2,43,32,28,30.32,29.95,3,0,0,0.59
2013-12-9,36.1,32.9,28.8,22.5,13.1,3.8,67,46,29,30.18,30.01,6,3,0,0.00
2013-12-10,39.0,30.3,25.7,30.3,22.5,16.3,77,72,64,30.31,30.09,11,3,0,0.00
2013-12-11,44.4,31.3,21.1,33.4,19.0,1.7,75,61,39,30.45,30.31,8,2,0,0.00
2013-12-14,47.3,41.7,35.2,13.2,8.4,3.7,27,25,24,29.92,29.69,12,4,0,0.49
2013-12-15,35.2,32.3,29.7,24.4,15.2,4.4,68,50,27,30.15,29.92,13,5,0,0.00
2013-12-16,54.0,41.1,28.6,41.9,26.3,4.7,71,56,35,30.13,29.96,7,2,0,0.00
2013-12-17,52.2,43.1,33.9,42.4,33.3,26.2,73,68,59,30.20,30.00,13,2,0,0.00
2013-12-18,51.8,38.3,24.2,30.8,23.0,5.4,74,55,38,30.28,30.07,4,1,0,0.00
2013-12-19,62.0,51.5,40.4,50.9,40.3,28.7,71,65,56,30.10,29.92,9,3,0,0.00
2013-12-20,64.3,60.1,54.8,52.0,42.9,32.2,71,54,32,29.92,29.79,10,5,0,0.00
2013-12-21,74.4,66.7,61.5,55.1,32.8,19.7,51,29,19,29.79,29.43,11,6,0,0.73
2013-12-22,61.5,54.6,41.0,28.0,18.0,9.5,38,24,19,30.03,29.52,13,4,0,0.29
2013-12-23,40.9,33.9,27.6,27.8,19.0,6.3,73,57,27,30.39,30.03,10,6,0,0.00
2013-12-24,29.3,25.2,20.7,19.7,17.0,14.3,76,71,57,30.53,30.37,10,4,0,0.00
2013-12-25,48.1,31.3,17.6,26.8,18.3,6.3,76,60,39,30.40,30.21,4,1,0,0.00
2013-12-26,45.4,34.5,27.8,33.4,23.6,7.9,73,64,37,30.36,30.22,4,0,0,0.00
2013-12-27,53.6,36.4,23.2,35.0,21.7,4.4,74,56,34,30.40,30.28,2,0,0,0.00
2013-12-28,48.2,38.8,29.9,36.9,26.7,9.8,77,63,28,30.28,29.90,0,0,0,0.16
2013-12-29,54.8,42.2,31.7,42.8,17.6,8.5,64,39,23,30.06,29.82,13,3,0,0.28
2013-12-30,31.7,29.3,25.3,21.3,15.0,5.4,66,55,37,30.23,30.06,7,2,0,0.00
2013-12-31,43.7,31.2,22.1,31.5,17.4,1.1,73,57,38,30.38,30.21,2,0,0,0.00
2014-1-1,51.9,38.4,27.6,35.9,26.7,9.3,76,63,45,30.26,29.88,4,1,0,0.00
2014-1-2,43.8,31.4,19.9,35.0,12.1,-0.5,74,49,25,30.30,29.77,18,8,0,0.28